createdAt,value
2023-02-06T00:01:25.040Z,2.42
2023-02-06T00:06:28.835Z,2.80
2023-02-06T00:11:34.044Z,2.60
2023-02-06T00:16:38.349Z,2.60
2023-02-06T00:21:42.890Z,2.55
2023-02-06T00:26:48.039Z,2.42
2023-02-06T00:31:51.755Z,2.42
2023-02-06T00:36:55.365Z,2.40
2023-02-06T00:42:00.397Z,2.80
2023-02-06T00:47:04.151Z,2.75
2023-02-06T00:52:07.839Z,2.50
2023-02-06T00:57:12.912Z,2.80
2023-02-06T01:02:18.280Z,2.80
2023-02-06T01:07:22.012Z,2.60
2023-02-06T01:12:27.066Z,2.72
2023-02-06T01:17:32.544Z,3.00
2023-02-06T01:22:38.222Z,2.83
2023-02-06T01:27:43.284Z,2.80
2023-02-06T01:32:46.962Z,2.90
2023-02-06T01:37:52.572Z,3.20
2023-02-06T01:42:57.640Z,2.80
2023-02-06T01:48:06.278Z,2.92
2023-02-06T01:53:10.320Z,3.03
2023-02-06T01:58:22.640Z,3.22
2023-02-06T02:03:27.345Z,3.00
2023-02-06T02:08:39.451Z,3.00
2023-02-06T02:13:45.333Z,3.55
2023-02-06T02:19:10.255Z,3.08
2023-02-06T02:24:22.002Z,3.38
2023-02-06T02:35:55.160Z,3.35
2023-02-06T02:41:06.583Z,3.50
2023-02-06T02:46:21.458Z,3.60
2023-02-06T02:51:27.076Z,3.75
2023-02-06T02:56:33.617Z,3.38
2023-02-06T03:01:48.549Z,3.67
2023-02-06T03:07:12.641Z,4.05
2023-02-06T03:12:24.261Z,3.78
2023-02-06T03:17:37.724Z,3.60
2023-02-06T03:22:45.754Z,3.92
2023-02-06T03:27:51.576Z,4.00
2023-02-06T03:33:04.871Z,3.72
2023-02-06T03:38:10.860Z,4.00
2023-02-06T03:43:18.851Z,3.83
2023-02-06T03:53:36.866Z,4.13
2023-02-06T03:58:40.714Z,3.90
2023-02-06T04:03:44.413Z,3.80
2023-02-06T04:08:49.584Z,3.72
2023-02-06T04:13:53.240Z,3.95
2023-02-06T04:18:56.865Z,3.88
2023-02-06T04:24:01.974Z,4.03
2023-02-06T04:29:05.573Z,3.75
2023-02-06T04:34:09.565Z,4.05
2023-02-06T04:39:14.682Z,4.25
2023-02-06T04:44:18.361Z,4.10
2023-02-06T04:49:22.221Z,4.10
2023-02-06T04:54:27.299Z,3.72
2023-02-06T04:59:31.160Z,4.07
2023-02-06T05:04:34.788Z,4.00
2023-02-06T05:09:39.719Z,4.00
2023-02-06T05:14:43.409Z,3.97
2023-02-06T05:19:47.028Z,4.13
2023-02-06T05:24:52.126Z,4.15
2023-02-06T05:29:55.801Z,4.50
2023-02-06T05:34:59.444Z,4.10
2023-02-06T05:40:04.656Z,3.90
2023-02-06T05:45:10.981Z,3.97
2023-02-06T05:50:14.641Z,3.63
2023-02-06T05:55:19.945Z,4.05
2023-02-06T06:00:23.850Z,4.20
2023-02-06T06:05:27.643Z,4.15
2023-02-06T06:10:32.755Z,3.78
2023-02-06T06:15:36.795Z,4.25
2023-02-06T06:20:40.592Z,3.90
2023-02-06T06:25:47.330Z,3.95
2023-02-06T06:30:51.047Z,3.72
2023-02-06T06:35:54.699Z,3.97
2023-02-06T06:40:59.659Z,3.97
2023-02-06T06:46:05.272Z,3.83
2023-02-06T06:51:09.016Z,4.05
2023-02-06T06:56:16.571Z,3.80
2023-02-06T07:01:21.301Z,3.80
2023-02-06T07:06:24.949Z,4.00
2023-02-06T07:11:30.094Z,4.10
2023-02-06T07:16:33.911Z,3.80
2023-02-06T07:21:37.905Z,3.95
2023-02-06T07:26:43.395Z,3.92
2023-02-06T07:31:47.436Z,3.78
2023-02-06T07:36:51.049Z,3.63
2023-02-06T07:41:56.155Z,3.90
2023-02-06T07:47:06.861Z,3.83
2023-02-06T07:52:10.624Z,3.67
2023-02-06T07:57:16.333Z,3.47
2023-02-06T08:02:20.119Z,3.78
2023-02-06T08:07:23.730Z,3.58
2023-02-06T08:12:31.263Z,4.07
2023-02-06T08:17:34.907Z,3.50
2023-02-06T08:22:39.017Z,3.92
2023-02-06T08:27:44.052Z,3.53
2023-02-06T08:32:47.800Z,4.00
2023-02-06T08:37:51.443Z,3.70
2023-02-06T08:42:56.404Z,3.50
2023-02-06T08:48:00.078Z,3.53
2023-02-06T08:53:03.980Z,3.55
2023-02-06T08:58:08.997Z,3.40
2023-02-06T09:03:12.648Z,3.33
2023-02-06T09:08:16.296Z,3.60
2023-02-06T09:13:21.249Z,3.20
2023-02-06T09:18:24.893Z,3.55
2023-02-06T09:23:28.911Z,3.10
2023-02-06T09:28:34.723Z,3.47
2023-02-06T09:33:41.561Z,3.40
2023-02-06T09:38:48.478Z,3.10
2023-02-06T09:44:04.311Z,3.20
2023-02-06T09:49:14.809Z,3.30
2023-02-06T09:54:29.362Z,3.40
2023-02-06T09:59:40.641Z,3.03
2023-02-06T10:04:55.601Z,2.95
2023-02-06T10:10:07.258Z,3.40
2023-02-06T10:15:20.961Z,3.05
2023-02-06T10:20:35.853Z,3.20
2023-02-06T10:25:45.253Z,3.05
2023-02-06T10:31:21.953Z,2.85
2023-02-06T10:36:46.904Z,2.90
2023-02-06T10:42:06.034Z,2.97
2023-02-06T10:47:29.710Z,3.00
2023-02-06T10:52:36.794Z,3.10
2023-02-06T10:57:43.022Z,3.20
2023-02-06T11:03:06.575Z,2.90
2023-02-06T11:08:24.113Z,2.83
2023-02-06T11:13:31.926Z,2.70
2023-02-06T11:18:41.567Z,2.42
2023-02-06T11:23:45.276Z,2.60
2023-02-06T11:28:54.307Z,2.85
2023-02-06T11:33:59.539Z,2.78
2023-02-06T11:39:07.901Z,2.65
2023-02-06T11:44:16.067Z,2.40
2023-02-06T11:49:30.119Z,2.38
2023-02-06T11:54:36.771Z,2.50
2023-02-06T11:59:53.565Z,2.30
2023-02-06T12:05:15.823Z,2.50
2023-02-06T12:10:23.538Z,2.53
2023-02-06T12:15:46.387Z,2.72
2023-02-06T12:20:58.988Z,2.55
2023-02-06T12:26:08.921Z,2.47
2023-02-06T12:31:22.470Z,2.67
2023-02-06T12:36:39.851Z,2.38
2023-02-06T12:42:13.164Z,2.33
2023-02-06T12:47:26.402Z,2.35
2023-02-06T12:52:39.083Z,2.58
2023-02-06T12:57:42.879Z,2.50
2023-02-06T13:03:26.249Z,2.30
2023-02-06T13:08:42.899Z,2.38
2023-02-06T13:13:46.587Z,2.30
2023-02-06T13:18:55.243Z,2.10
2023-02-06T13:24:19.925Z,2.40
2023-02-06T13:29:26.257Z,2.30
2023-02-06T13:34:30.131Z,2.30
2023-02-06T13:39:35.611Z,2.00
2023-02-06T13:44:40.713Z,2.38
2023-02-06T13:50:54.233Z,2.30
2023-02-06T13:56:20.288Z,2.30
2023-02-06T14:01:30.522Z,2.28
2023-02-06T14:07:05.672Z,1.98
2023-02-06T14:12:35.407Z,2.20
2023-02-06T14:18:16.738Z,2.20
2023-02-06T14:23:40.282Z,2.00
2023-02-06T14:28:58.954Z,2.03
2023-02-06T14:34:26.229Z,1.90
2023-02-06T14:39:48.764Z,2.10
2023-02-06T14:44:58.768Z,2.30
2023-02-06T14:50:03.316Z,2.00
2023-02-06T14:55:38.795Z,2.05
2023-02-06T15:00:44.195Z,2.00
2023-02-06T15:05:48.790Z,1.90
2023-02-06T15:11:00.369Z,2.10
2023-02-06T15:16:09.247Z,2.20
2023-02-06T15:21:17.622Z,1.70
2023-02-06T15:26:35.589Z,2.00
2023-02-06T15:31:40.961Z,1.80
2023-02-06T15:36:44.806Z,1.90
2023-02-06T15:41:52.636Z,1.85
2023-02-06T15:46:58.872Z,1.88
2023-02-06T15:52:03.315Z,1.77
2023-02-06T15:57:24.748Z,2.00
2023-02-06T16:02:35.792Z,1.90
2023-02-06T16:07:39.718Z,2.00
2023-02-06T16:12:44.895Z,1.88
2023-02-06T16:17:49.992Z,1.80
2023-02-06T16:22:57.177Z,1.70
2023-02-06T16:28:01.698Z,1.90
2023-02-06T16:33:26.845Z,1.60
2023-02-06T16:38:30.585Z,1.70
2023-02-06T16:43:34.190Z,1.80
2023-02-06T16:48:39.349Z,1.60
2023-02-06T16:53:43.017Z,1.60
2023-02-06T16:58:47.588Z,1.58
2023-02-06T17:03:53.732Z,1.67
2023-02-06T17:09:03.482Z,1.80
2023-02-06T17:14:07.513Z,1.67
2023-02-06T17:19:15.479Z,1.63
2023-02-06T17:24:19.210Z,1.70
2023-02-06T17:29:22.922Z,1.63
2023-02-06T17:34:30.189Z,1.80
2023-02-06T17:39:35.544Z,1.25
2023-02-06T17:44:39.894Z,1.40
2023-02-06T17:49:47.144Z,1.40
2023-02-06T17:54:51.203Z,1.60
2023-02-06T17:59:54.916Z,1.70
2023-02-06T18:05:00.952Z,1.55
2023-02-06T18:10:06.031Z,1.42
2023-02-06T18:15:13.680Z,1.40
2023-02-06T18:20:19.291Z,1.70
2023-02-06T18:25:23.830Z,1.52
2023-02-06T18:30:27.519Z,1.45
2023-02-06T18:35:33.756Z,1.55
2023-02-06T18:40:39.215Z,1.63
2023-02-06T18:45:44.297Z,1.60
2023-02-06T18:50:49.365Z,1.63
2023-02-06T18:55:59.059Z,1.60
2023-02-06T19:01:02.793Z,1.60
2023-02-06T19:06:16.010Z,1.60
2023-02-06T19:11:19.788Z,1.83
2023-02-06T19:16:23.606Z,1.40
2023-02-06T19:21:29.255Z,1.70
2023-02-06T19:26:33.665Z,1.77
2023-02-06T19:31:40.536Z,1.58
2023-02-06T19:36:45.952Z,1.80
2023-02-06T19:41:49.747Z,1.63
2023-02-06T19:46:53.672Z,2.10
2023-02-06T19:51:58.765Z,1.70
2023-02-06T19:57:02.477Z,1.60
2023-02-06T20:02:06.210Z,1.80
2023-02-06T20:07:11.207Z,1.80
2023-02-06T20:12:14.860Z,2.10
2023-02-06T20:17:18.565Z,1.88
2023-02-06T20:22:23.741Z,1.60
2023-02-06T20:27:27.716Z,1.80
2023-02-06T20:32:31.910Z,1.92
2023-02-06T20:37:36.956Z,1.80
2023-02-06T20:42:44.473Z,1.83
2023-02-06T20:47:48.198Z,1.95
2023-02-06T20:52:53.342Z,1.83
2023-02-06T20:57:57.027Z,2.05
2023-02-06T21:03:00.680Z,2.00
2023-02-06T21:08:06.038Z,2.20
2023-02-06T21:13:09.677Z,1.98
2023-02-06T21:18:13.319Z,1.80
2023-02-06T21:23:19.036Z,1.90
2023-02-06T21:28:23.644Z,1.90
2023-02-06T21:33:27.332Z,2.03
2023-02-06T21:38:32.320Z,1.88
2023-02-06T21:43:36.124Z,1.92
2023-02-06T21:48:41.334Z,2.20
2023-02-06T21:53:47.194Z,2.08
2023-02-06T21:58:52.240Z,2.10
2023-02-06T22:03:56.930Z,2.00
2023-02-06T22:09:07.442Z,2.28
2023-02-06T22:14:15.472Z,2.20
2023-02-06T22:19:19.102Z,2.30
2023-02-06T22:24:24.101Z,2.00
2023-02-06T22:29:30.076Z,2.20
2023-02-06T22:34:34.236Z,2.10
2023-02-06T22:39:39.251Z,2.10
2023-02-06T22:44:43.026Z,2.10
2023-02-06T22:49:47.058Z,2.20
2023-02-06T22:54:52.154Z,1.90
2023-02-06T22:59:55.804Z,2.20
2023-02-06T23:04:59.574Z,2.00
2023-02-06T23:10:06.268Z,2.25
2023-02-06T23:15:11.461Z,2.00
2023-02-06T23:20:15.165Z,2.13
2023-02-06T23:25:20.376Z,2.20
2023-02-06T23:30:24.553Z,2.00
2023-02-06T23:35:28.264Z,2.25
2023-02-06T23:40:34.555Z,2.03
2023-02-06T23:45:38.743Z,2.22
2023-02-06T23:50:42.641Z,2.30
2023-02-06T23:55:47.778Z,2.00
